createdAt,value
2022-11-23T00:01:51.364Z,1.70
2022-11-23T00:04:54.487Z,1.80
2022-11-23T00:07:57.652Z,1.50
2022-11-23T00:11:00.893Z,1.50
2022-11-23T00:14:05.703Z,1.60
2022-11-23T00:17:08.599Z,1.50
2022-11-23T00:20:11.977Z,1.50
2022-11-23T00:23:14.923Z,1.60
2022-11-23T00:26:19.474Z,1.50
2022-11-23T00:29:23.758Z,1.60
2022-11-23T00:32:27.443Z,1.70
2022-11-23T00:35:30.385Z,1.80
2022-11-23T00:38:33.570Z,1.50
2022-11-23T00:41:36.764Z,1.50
2022-11-23T00:44:41.044Z,1.70
2022-11-23T00:47:43.925Z,1.60
2022-11-23T00:50:46.827Z,1.60
2022-11-23T00:53:51.048Z,1.70
2022-11-23T00:56:53.900Z,1.70
2022-11-23T00:59:58.190Z,1.60
2022-11-23T01:03:01.111Z,1.50
2022-11-23T01:06:08.877Z,1.60
2022-11-23T01:09:15.972Z,1.50
2022-11-23T01:12:18.878Z,1.80
2022-11-23T01:15:23.359Z,1.50
2022-11-23T01:18:26.847Z,1.40
2022-11-23T01:21:31.359Z,1.70
2022-11-23T01:24:34.283Z,1.50
2022-11-23T01:27:37.184Z,1.60
2022-11-23T01:30:41.418Z,1.40
2022-11-23T01:33:44.594Z,1.50
2022-11-23T01:36:47.705Z,1.40
2022-11-23T01:39:50.616Z,1.60
2022-11-23T01:42:56.633Z,1.60
2022-11-23T01:46:02.050Z,1.70
2022-11-23T01:49:07.664Z,1.80
2022-11-23T01:52:13.991Z,1.70
2022-11-23T01:55:17.948Z,1.90
2022-11-23T01:58:24.511Z,1.90
2022-11-23T02:01:28.991Z,2.00
2022-11-23T02:04:35.145Z,1.80
2022-11-23T02:07:39.102Z,1.90
2022-11-23T02:10:42.253Z,1.80
2022-11-23T02:13:47.631Z,1.90
2022-11-23T02:16:52.598Z,1.90
2022-11-23T02:20:02.616Z,2.10
2022-11-23T02:23:17.936Z,2.10
2022-11-23T02:26:24.185Z,2.00
2022-11-23T02:29:29.427Z,2.20
2022-11-23T02:32:34.383Z,2.00
2022-11-23T02:35:37.501Z,2.00
2022-11-23T02:38:40.414Z,2.00
2022-11-23T02:41:48.074Z,2.00
2022-11-23T02:45:01.378Z,2.00
2022-11-23T02:48:04.809Z,2.00
2022-11-23T02:51:07.925Z,2.00
2022-11-23T02:54:10.888Z,2.00
2022-11-23T02:57:15.647Z,2.00
2022-11-23T03:00:18.735Z,2.00
2022-11-23T03:03:21.629Z,2.10
2022-11-23T03:06:24.597Z,2.20
2022-11-23T03:09:28.256Z,2.00
2022-11-23T03:12:32.524Z,1.90
2022-11-23T03:15:35.395Z,1.90
2022-11-23T03:18:38.307Z,1.90
2022-11-23T03:21:41.231Z,1.70
2022-11-23T03:24:44.178Z,2.10
2022-11-23T03:27:48.733Z,1.90
2022-11-23T03:30:51.816Z,1.70
2022-11-23T03:33:54.805Z,1.70
2022-11-23T03:36:57.841Z,1.80
2022-11-23T03:40:00.791Z,1.80
2022-11-23T03:43:05.742Z,1.60
2022-11-23T03:46:08.595Z,1.50
2022-11-23T03:49:11.897Z,1.60
2022-11-23T03:52:14.770Z,1.70
2022-11-23T03:55:18.034Z,2.00
2022-11-23T03:58:22.364Z,1.40
2022-11-23T04:01:25.941Z,1.70
2022-11-23T04:04:28.912Z,1.50
2022-11-23T04:07:31.876Z,1.70
2022-11-23T04:10:35.192Z,1.40
2022-11-23T04:13:39.810Z,1.50
2022-11-23T04:16:42.718Z,1.60
2022-11-23T04:19:45.780Z,1.60
2022-11-23T04:22:48.671Z,1.60
2022-11-23T04:25:51.713Z,1.50
2022-11-23T04:28:56.102Z,1.60
2022-11-23T04:31:59.058Z,1.60
2022-11-23T04:35:01.946Z,1.60
2022-11-23T04:38:05.143Z,1.70
2022-11-23T04:41:08.047Z,1.50
2022-11-23T04:44:12.349Z,1.50
2022-11-23T04:47:15.315Z,1.60
2022-11-23T04:50:18.352Z,1.60
2022-11-23T04:53:21.314Z,1.50
2022-11-23T04:56:24.189Z,1.60
2022-11-23T04:59:28.691Z,1.60
2022-11-23T05:02:31.712Z,1.40
2022-11-23T05:05:34.675Z,1.40
2022-11-23T05:08:38.526Z,1.50
2022-11-23T05:11:41.780Z,1.50
2022-11-23T05:14:46.062Z,1.40
2022-11-23T05:17:48.955Z,1.50
2022-11-23T05:20:51.853Z,1.40
2022-11-23T05:23:54.894Z,1.50
2022-11-23T05:26:57.901Z,1.50
2022-11-23T05:30:02.479Z,1.50
2022-11-23T05:33:05.519Z,1.70
2022-11-23T05:36:09.223Z,1.70
2022-11-23T05:39:12.377Z,1.70
2022-11-23T05:42:15.372Z,1.70
2022-11-23T05:45:19.688Z,1.70
2022-11-23T05:48:22.574Z,1.80
2022-11-23T05:51:25.500Z,1.70
2022-11-23T05:54:28.427Z,1.80
2022-11-23T05:57:31.338Z,1.70
2022-11-23T06:00:35.642Z,1.70
2022-11-23T06:03:38.624Z,1.70
2022-11-23T06:06:41.759Z,1.70
2022-11-23T06:09:44.691Z,2.00
2022-11-23T06:12:47.664Z,1.90
2022-11-23T06:15:51.978Z,1.70
2022-11-23T06:18:54.895Z,1.70
2022-11-23T06:21:58.236Z,1.70
2022-11-23T06:25:01.374Z,1.60
2022-11-23T06:28:05.390Z,1.50
2022-11-23T06:31:11.483Z,1.60
2022-11-23T06:34:14.504Z,1.60
2022-11-23T06:37:17.413Z,1.70
2022-11-23T06:40:20.381Z,1.60
2022-11-23T06:43:23.329Z,1.60
2022-11-23T06:46:27.792Z,1.40
2022-11-23T06:49:31.053Z,1.60
2022-11-23T06:52:34.174Z,1.40
2022-11-23T06:55:37.122Z,1.30
2022-11-23T06:58:40.045Z,1.50
2022-11-23T07:01:44.411Z,1.30
2022-11-23T07:04:47.322Z,1.30
2022-11-23T07:07:50.531Z,1.30
2022-11-23T07:10:53.480Z,1.40
2022-11-23T07:13:56.594Z,1.40
2022-11-23T07:17:00.866Z,1.40
2022-11-23T07:20:03.833Z,1.40
2022-11-23T07:23:08.352Z,1.40
2022-11-23T07:26:11.227Z,1.30
2022-11-23T07:29:14.313Z,1.50
2022-11-23T07:32:18.559Z,1.50
2022-11-23T07:35:21.971Z,1.40
2022-11-23T07:38:24.908Z,1.50
2022-11-23T07:41:28.347Z,1.40
2022-11-23T07:44:31.286Z,1.60
2022-11-23T07:47:35.730Z,1.50
2022-11-23T07:50:40.041Z,1.90
2022-11-23T07:53:43.116Z,1.90
2022-11-23T07:56:46.071Z,1.80
2022-11-23T07:59:49.126Z,1.80
2022-11-23T08:03:25.576Z,2.00
2022-11-23T08:06:17.256Z,2.10
2022-11-23T08:09:20.302Z,2.20
2022-11-23T08:12:23.243Z,2.20
2022-11-23T08:15:28.095Z,2.10
2022-11-23T08:18:32.367Z,2.20
2022-11-23T08:21:35.255Z,2.20
2022-11-23T08:24:38.110Z,2.30
2022-11-23T08:27:41.174Z,2.20
2022-11-23T08:30:44.253Z,2.30
2022-11-23T08:33:48.572Z,2.40
2022-11-23T08:36:51.443Z,2.50
2022-11-23T08:39:54.360Z,2.60
2022-11-23T08:42:57.339Z,2.50
2022-11-23T08:46:05.642Z,2.80
2022-11-23T08:49:12.323Z,2.80
2022-11-23T08:52:15.943Z,2.80
2022-11-23T08:55:18.956Z,2.80
2022-11-23T08:58:21.882Z,2.80
2022-11-23T09:01:24.842Z,2.90
2022-11-23T09:04:30.879Z,2.90
2022-11-23T09:07:34.037Z,3.10
2022-11-23T09:10:37.769Z,3.10
2022-11-23T09:13:41.053Z,3.30
2022-11-23T09:16:43.990Z,3.20
2022-11-23T09:19:50.196Z,3.20
2022-11-23T09:22:53.865Z,3.40
2022-11-23T09:25:59.430Z,3.40
2022-11-23T09:29:02.319Z,3.50
2022-11-23T09:32:05.512Z,3.70
2022-11-23T09:35:10.775Z,3.90
2022-11-23T09:38:13.752Z,4.10
2022-11-23T09:41:32.150Z,4.30
2022-11-23T09:44:52.220Z,4.50
2022-11-23T09:48:11.780Z,4.60
2022-11-23T09:51:18.738Z,4.60
2022-11-23T09:54:29.225Z,4.60
2022-11-23T09:57:35.552Z,4.60
2022-11-23T10:00:42.277Z,4.60
2022-11-23T10:03:49.098Z,4.70
2022-11-23T10:06:57.539Z,4.70
2022-11-23T10:10:10.083Z,4.80
2022-11-23T10:13:28.045Z,4.90
2022-11-23T10:16:41.470Z,5.10
2022-11-23T10:20:02.799Z,5.30
2022-11-23T10:23:18.150Z,5.20
2022-11-23T10:26:22.707Z,5.40
2022-11-23T10:29:29.587Z,5.40
2022-11-23T10:32:37.887Z,5.60
2022-11-23T10:35:40.814Z,5.70
2022-11-23T10:38:45.566Z,5.70
2022-11-23T10:41:48.929Z,5.80
2022-11-23T10:44:54.111Z,5.80
2022-11-23T10:47:59.563Z,6.00
2022-11-23T10:51:17.854Z,6.20
2022-11-23T10:54:25.777Z,6.40
2022-11-23T10:57:33.533Z,6.50
2022-11-23T11:00:36.571Z,6.60
2022-11-23T11:03:39.482Z,6.70
2022-11-23T11:06:42.387Z,6.80
2022-11-23T11:09:50.695Z,6.90
2022-11-23T11:12:53.607Z,7.10
2022-11-23T11:15:58.927Z,7.10
2022-11-23T11:19:21.445Z,7.10
2022-11-23T11:22:33.459Z,7.20
2022-11-23T11:25:39.878Z,7.30
2022-11-23T11:28:44.772Z,7.20
2022-11-23T11:31:55.764Z,7.30
2022-11-23T11:35:04.890Z,7.30
2022-11-23T11:38:15.877Z,7.30
2022-11-23T11:41:25.351Z,7.40
2022-11-23T11:44:28.897Z,7.50
2022-11-23T11:47:37.688Z,7.40
2022-11-23T11:50:49.162Z,7.60
2022-11-23T11:53:57.648Z,7.60
2022-11-23T11:57:07.002Z,7.70
2022-11-23T12:00:14.879Z,7.70
2022-11-23T12:03:26.684Z,7.70
2022-11-23T12:06:35.785Z,7.70
2022-11-23T12:09:44.744Z,7.60
2022-11-23T12:12:49.287Z,7.80
2022-11-23T12:16:01.323Z,7.90
2022-11-23T12:19:15.082Z,8.00
2022-11-23T12:22:36.241Z,7.90
2022-11-23T12:25:41.896Z,7.90
2022-11-23T12:29:06.238Z,7.80
2022-11-23T12:32:20.358Z,7.80
2022-11-23T12:35:42.905Z,7.70
2022-11-23T12:38:55.616Z,7.60
2022-11-23T12:42:05.168Z,7.50
2022-11-23T12:45:25.090Z,7.50
2022-11-23T12:48:51.343Z,7.50
2022-11-23T12:52:01.593Z,7.40
2022-11-23T12:55:20.066Z,7.40
2022-11-23T12:58:28.776Z,7.40
2022-11-23T13:01:37.928Z,7.30
2022-11-23T13:05:00.744Z,7.40
2022-11-23T13:08:21.780Z,7.40
2022-11-23T13:11:38.305Z,7.40
2022-11-23T13:14:49.704Z,7.40
2022-11-23T13:18:02.159Z,7.40
2022-11-23T13:21:18.660Z,7.50
2022-11-23T13:24:30.744Z,7.50
2022-11-23T13:27:46.884Z,7.40
2022-11-23T13:31:20.420Z,7.40
2022-11-23T13:34:45.896Z,7.50
2022-11-23T13:38:24.674Z,7.50
2022-11-23T13:42:00.469Z,7.50
2022-11-23T13:45:28.599Z,7.50
2022-11-23T13:48:55.395Z,7.50
2022-11-23T13:52:26.111Z,7.40
2022-11-23T13:55:35.352Z,7.40
2022-11-23T13:58:40.742Z,7.30
2022-11-23T14:02:00.487Z,7.40
2022-11-23T14:05:51.983Z,7.10
2022-11-23T14:09:05.661Z,7.10
2022-11-23T14:12:18.165Z,7.10
2022-11-23T14:15:23.078Z,7.10
2022-11-23T14:18:52.632Z,7.10
2022-11-23T14:22:04.094Z,7.10
2022-11-23T14:25:38.031Z,7.10
2022-11-23T14:28:49.202Z,7.00
2022-11-23T14:32:08.928Z,7.00
2022-11-23T14:35:25.084Z,6.90
2022-11-23T14:38:57.694Z,6.80
2022-11-23T14:42:06.291Z,6.70
2022-11-23T14:45:15.208Z,6.80
2022-11-23T14:48:22.019Z,6.50
2022-11-23T14:51:27.130Z,6.40
2022-11-23T14:54:31.293Z,6.30
2022-11-23T14:57:41.786Z,6.30
2022-11-23T15:00:45.758Z,6.20
2022-11-23T15:03:57.877Z,6.10
2022-11-23T15:07:04.063Z,6.00
2022-11-23T15:10:19.118Z,5.90
2022-11-23T15:13:26.824Z,5.80
2022-11-23T15:16:30.497Z,5.80
2022-11-23T15:19:33.744Z,5.70
2022-11-23T15:22:37.902Z,5.70
2022-11-23T15:25:52.093Z,5.60
2022-11-23T15:28:56.512Z,5.50
2022-11-23T15:32:28.413Z,5.50
2022-11-23T15:35:24.174Z,5.40
2022-11-23T15:38:27.641Z,5.40
2022-11-23T15:41:31.792Z,5.30
2022-11-23T15:44:39.820Z,5.30
2022-11-23T15:47:43.193Z,5.30
2022-11-23T15:50:50.544Z,5.30
2022-11-23T15:53:55.060Z,5.30
2022-11-23T15:56:59.031Z,5.50
2022-11-23T16:00:06.541Z,5.30
2022-11-23T16:03:34.732Z,5.30
2022-11-23T16:06:40.594Z,5.40
2022-11-23T16:09:54.477Z,5.50
2022-11-23T16:12:59.323Z,5.20
2022-11-23T16:16:06.312Z,5.30
2022-11-23T16:19:26.204Z,5.30
2022-11-23T16:22:32.829Z,5.40
2022-11-23T16:25:37.024Z,5.20
2022-11-23T16:28:41.532Z,5.20
2022-11-23T16:31:56.146Z,5.30
2022-11-23T16:35:07.844Z,5.10
2022-11-23T16:38:12.526Z,5.00
2022-11-23T16:41:15.450Z,5.00
2022-11-23T16:44:18.618Z,4.90
2022-11-23T16:47:25.277Z,4.90
2022-11-23T16:50:29.794Z,4.90
2022-11-23T16:53:53.497Z,5.00
2022-11-23T16:56:56.625Z,4.80
2022-11-23T17:00:12.519Z,4.60
2022-11-23T17:03:17.782Z,4.50
2022-11-23T17:06:23.267Z,4.60
2022-11-23T17:09:26.251Z,4.60
2022-11-23T17:12:29.213Z,4.50
2022-11-23T17:15:32.147Z,4.40
2022-11-23T17:18:36.415Z,4.60
2022-11-23T17:21:39.362Z,4.30
2022-11-23T17:24:42.539Z,4.60
2022-11-23T17:27:47.070Z,4.20
2022-11-23T17:30:50.132Z,4.30
2022-11-23T17:33:54.412Z,4.20
2022-11-23T17:36:57.380Z,4.10
2022-11-23T17:40:00.327Z,4.20
2022-11-23T17:43:03.344Z,4.10
2022-11-23T17:46:06.968Z,4.30
2022-11-23T17:49:14.021Z,4.20
2022-11-23T17:52:17.024Z,4.00
2022-11-23T17:55:20.046Z,4.10
2022-11-23T17:58:22.943Z,4.10
2022-11-23T18:01:26.038Z,3.90
2022-11-23T18:04:30.391Z,4.00
2022-11-23T18:07:33.420Z,3.80
2022-11-23T18:10:36.408Z,3.80
2022-11-23T18:13:39.953Z,3.80
2022-11-23T18:16:42.808Z,3.60
2022-11-23T18:19:47.074Z,3.70
2022-11-23T18:22:50.131Z,3.60
2022-11-23T18:25:59.724Z,3.80
2022-11-23T18:29:02.915Z,3.60
2022-11-23T18:32:06.670Z,3.80
2022-11-23T18:35:11.351Z,3.50
2022-11-23T18:38:15.042Z,3.80
2022-11-23T18:41:18.700Z,3.70
2022-11-23T18:44:21.733Z,3.40
2022-11-23T18:47:24.987Z,3.40
2022-11-23T18:50:29.225Z,3.50
2022-11-23T18:53:33.108Z,3.40
2022-11-23T18:56:36.096Z,3.40
2022-11-23T19:03:03.649Z,3.40
2022-11-23T19:06:08.591Z,3.30
2022-11-23T19:09:14.150Z,3.30
2022-11-23T19:12:17.179Z,3.30
2022-11-23T19:15:20.621Z,3.30
2022-11-23T19:18:23.566Z,3.30
2022-11-23T19:21:30.153Z,3.40
2022-11-23T19:24:33.089Z,3.40
2022-11-23T19:27:37.328Z,3.10
2022-11-23T19:30:40.210Z,3.20
2022-11-23T19:33:43.532Z,3.10
2022-11-23T19:36:48.023Z,3.10
2022-11-23T19:39:50.942Z,3.00
2022-11-23T19:42:53.909Z,3.00
2022-11-23T19:45:57.388Z,3.20
2022-11-23T19:49:00.482Z,3.10
2022-11-23T19:52:05.551Z,3.00
2022-11-23T19:55:09.374Z,3.10
2022-11-23T19:58:12.305Z,3.10
2022-11-23T20:01:16.777Z,2.90
2022-11-23T20:04:20.091Z,2.70
2022-11-23T20:07:24.585Z,2.80
2022-11-23T20:10:27.515Z,2.90
2022-11-23T20:13:30.814Z,2.70
2022-11-23T20:16:34.245Z,2.80
2022-11-23T20:19:37.241Z,2.80
2022-11-23T20:22:42.795Z,2.70
2022-11-23T20:25:45.755Z,2.80
2022-11-23T20:28:52.727Z,2.80
2022-11-23T20:31:55.634Z,2.90
2022-11-23T20:34:58.636Z,2.80
2022-11-23T20:38:03.072Z,2.80
2022-11-23T20:41:14.103Z,2.80
2022-11-23T20:44:17.044Z,2.80
2022-11-23T20:47:20.013Z,2.60
2022-11-23T20:50:25.168Z,2.70
2022-11-23T20:53:29.609Z,2.70
2022-11-23T20:56:33.037Z,2.60
2022-11-23T20:59:35.973Z,2.70
2022-11-23T21:02:38.987Z,2.60
2022-11-23T21:05:41.892Z,2.70
2022-11-23T21:08:47.471Z,2.50
2022-11-23T21:12:08.179Z,2.60
2022-11-23T21:15:11.176Z,2.50
2022-11-23T21:18:14.300Z,2.60
2022-11-23T21:21:17.197Z,2.40
2022-11-23T21:24:21.702Z,2.50
2022-11-23T21:27:28.073Z,2.50
2022-11-23T21:30:31.619Z,2.50
2022-11-23T21:33:34.752Z,2.30
2022-11-23T21:36:39.664Z,2.50
2022-11-23T21:39:49.433Z,2.40
2022-11-23T21:42:55.702Z,2.40
2022-11-23T21:46:02.335Z,2.50
2022-11-23T21:49:06.547Z,2.40
2022-11-23T21:52:09.774Z,2.40
2022-11-23T21:55:14.317Z,2.50
2022-11-23T21:58:17.200Z,2.30
2022-11-23T22:01:22.024Z,2.40
2022-11-23T22:04:25.244Z,2.20
2022-11-23T22:07:28.427Z,2.50
2022-11-23T22:10:32.991Z,2.30
2022-11-23T22:13:37.092Z,2.40
2022-11-23T22:16:41.797Z,2.50
2022-11-23T22:19:44.969Z,2.30
2022-11-23T22:22:48.002Z,2.50
2022-11-23T22:25:52.485Z,2.50
2022-11-23T22:28:56.514Z,2.50
2022-11-23T22:31:59.652Z,2.50
2022-11-23T22:35:02.772Z,2.40
2022-11-23T22:38:05.855Z,2.50
2022-11-23T22:41:12.216Z,2.40
2022-11-23T22:44:15.244Z,2.30
2022-11-23T22:47:18.378Z,2.50
2022-11-23T22:50:21.469Z,2.60
2022-11-23T22:53:25.336Z,2.40
2022-11-23T22:56:31.243Z,2.70
2022-11-23T22:59:34.413Z,2.60
2022-11-23T23:02:37.584Z,2.60
2022-11-23T23:05:40.745Z,2.30
2022-11-23T23:08:44.028Z,2.50
2022-11-23T23:11:48.535Z,2.60
2022-11-23T23:14:51.608Z,2.60
2022-11-23T23:17:54.811Z,2.60
2022-11-23T23:21:05.064Z,2.60
2022-11-23T23:24:08.529Z,2.50
2022-11-23T23:27:13.003Z,2.60
2022-11-23T23:30:17.280Z,2.50
2022-11-23T23:33:20.368Z,2.50
2022-11-23T23:36:24.995Z,2.60
2022-11-23T23:39:28.141Z,2.50
2022-11-23T23:42:32.846Z,2.40
2022-11-23T23:45:35.980Z,2.20
2022-11-23T23:48:40.036Z,2.30
2022-11-23T23:51:45.545Z,2.50
2022-11-23T23:54:52.098Z,2.60
2022-11-23T23:57:56.553Z,2.40
